createdAt,value
2019-03-04T00:01:59.523Z,34.30
2019-03-04T00:04:28.028Z,43.70
2019-03-04T00:06:56.662Z,38.50
2019-03-04T00:09:25.529Z,46.70
2019-03-04T00:11:54.031Z,43.83
2019-03-04T00:14:22.703Z,47.70
2019-03-04T00:16:51.591Z,41.20
2019-03-04T00:19:20.091Z,37.33
2019-03-04T00:21:48.579Z,37.37
2019-03-04T00:24:17.242Z,42.03
2019-03-04T00:26:45.873Z,44.43
2019-03-04T00:29:14.370Z,41.83
2019-03-04T00:31:42.981Z,35.10
2019-03-04T00:34:11.606Z,32.30
2019-03-04T00:36:40.282Z,32.73
2019-03-04T00:39:10.991Z,30.37
2019-03-04T00:41:39.633Z,30.60
2019-03-04T00:44:08.269Z,31.67
2019-03-04T00:46:36.898Z,27.43
2019-03-04T00:49:05.821Z,32.10
2019-03-04T00:51:34.448Z,28.80
2019-03-04T00:54:02.956Z,29.63
2019-03-04T00:56:31.469Z,29.80
2019-03-04T00:59:00.104Z,31.83
2019-03-04T01:01:28.951Z,30.20
2019-03-04T01:03:57.510Z,28.80
2019-03-04T01:06:26.071Z,26.07
2019-03-04T01:08:54.710Z,26.03
2019-03-04T01:11:23.337Z,26.03
2019-03-04T01:13:51.883Z,30.47
2019-03-04T01:16:20.371Z,30.73
2019-03-04T01:18:48.998Z,28.90
2019-03-04T01:21:17.641Z,28.67
2019-03-04T01:23:46.134Z,27.47
2019-03-04T01:26:14.802Z,27.60
2019-03-04T01:28:43.296Z,26.37
2019-03-04T01:31:11.796Z,24.33
2019-03-04T01:33:40.462Z,25.50
2019-03-04T01:36:09.098Z,27.20
2019-03-04T01:38:37.663Z,27.90
2019-03-04T01:41:06.338Z,25.27
2019-03-04T01:43:34.974Z,27.23
2019-03-04T01:46:03.605Z,25.93
2019-03-04T01:48:32.147Z,26.97
2019-03-04T01:51:00.776Z,29.90
2019-03-04T01:53:29.407Z,31.27
2019-03-04T01:55:58.281Z,26.33
2019-03-04T01:58:26.779Z,28.87
2019-03-04T02:00:55.341Z,33.73
2019-03-04T02:03:24.233Z,36.73
2019-03-04T02:05:52.728Z,37.67
2019-03-04T02:08:21.365Z,40.60
2019-03-04T02:10:50.185Z,36.57
2019-03-04T02:13:18.749Z,42.27
2019-03-04T02:15:47.421Z,38.30
2019-03-04T02:18:16.089Z,37.63
2019-03-04T02:20:44.724Z,41.93
2019-03-04T02:23:13.212Z,37.40
2019-03-04T02:25:50.836Z,36.07
2019-03-04T02:28:19.460Z,36.37
2019-03-04T02:30:48.096Z,37.87
2019-03-04T02:33:16.781Z,35.90
2019-03-04T02:35:45.357Z,35.00
2019-03-04T02:38:13.909Z,36.27
2019-03-04T02:40:42.595Z,34.17
2019-03-04T02:43:11.157Z,40.03
2019-03-04T02:45:39.790Z,37.57
2019-03-04T02:48:08.304Z,37.87
2019-03-04T02:50:36.877Z,36.90
2019-03-04T02:53:05.741Z,37.17
2019-03-04T02:55:34.454Z,38.23
2019-03-04T02:58:05.958Z,40.73
2019-03-04T03:00:34.569Z,40.70
2019-03-04T03:03:03.205Z,39.47
2019-03-04T03:05:31.846Z,42.30
2019-03-04T03:08:00.448Z,35.97
2019-03-04T03:10:29.016Z,46.53
2019-03-04T03:12:57.647Z,40.73
2019-03-04T03:15:27.003Z,40.37
2019-03-04T03:17:55.493Z,44.63
2019-03-04T03:20:24.001Z,41.67
2019-03-04T03:22:52.666Z,36.10
2019-03-04T03:25:21.151Z,38.40
2019-03-04T03:27:49.789Z,41.57
2019-03-04T03:30:22.685Z,40.77
2019-03-04T03:32:51.166Z,42.27
2019-03-04T03:35:19.730Z,36.40
2019-03-04T03:37:48.401Z,41.27
2019-03-04T03:40:18.842Z,42.33
2019-03-04T03:42:47.403Z,45.03
2019-03-04T03:45:16.416Z,42.83
2019-03-04T03:47:45.157Z,30.07
2019-03-04T03:50:18.570Z,33.87
2019-03-04T03:52:47.174Z,33.60
2019-03-04T03:55:17.113Z,33.20
2019-03-04T03:57:45.842Z,32.17
2019-03-04T04:00:25.681Z,33.00
2019-03-04T04:02:54.367Z,36.30
2019-03-04T04:05:22.979Z,38.70
2019-03-04T04:07:51.892Z,33.33
2019-03-04T04:10:21.460Z,35.83
2019-03-04T04:12:50.016Z,35.53
2019-03-04T04:15:20.697Z,34.03
2019-03-04T04:17:49.312Z,28.90
2019-03-04T04:20:17.950Z,30.40
2019-03-04T04:22:46.560Z,32.97
2019-03-04T04:25:15.461Z,32.37
2019-03-04T04:27:44.093Z,29.77
2019-03-04T04:30:27.632Z,31.27
2019-03-04T04:32:56.125Z,36.30
2019-03-04T04:35:24.611Z,35.17
2019-03-04T04:37:53.316Z,32.93
2019-03-04T04:40:21.982Z,37.13
2019-03-04T04:42:50.450Z,36.63
2019-03-04T04:45:19.138Z,31.87
2019-03-04T04:47:47.629Z,37.63
2019-03-04T04:50:30.693Z,34.17
2019-03-04T04:52:59.338Z,33.03
2019-03-04T04:55:27.969Z,34.67
2019-03-04T04:57:56.566Z,28.57
2019-03-04T05:00:25.191Z,37.67
2019-03-04T05:02:53.821Z,33.80
2019-03-04T05:05:22.490Z,35.30
2019-03-04T05:07:50.984Z,36.00
2019-03-04T05:10:20.720Z,39.60
2019-03-04T05:12:49.666Z,33.40
2019-03-04T05:15:18.403Z,34.77
2019-03-04T05:17:46.972Z,31.67
2019-03-04T05:20:21.721Z,27.93
2019-03-04T05:22:50.351Z,26.97
2019-03-04T05:25:18.917Z,32.60
2019-03-04T05:27:47.786Z,26.85
2019-03-04T05:30:23.749Z,31.95
2019-03-04T05:32:52.457Z,35.65
2019-03-04T05:35:20.949Z,28.60
2019-03-04T05:37:49.578Z,43.70
2019-03-04T05:40:19.350Z,50.75
2019-03-04T05:42:47.850Z,52.58
2019-03-04T05:45:17.381Z,59.13
2019-03-04T05:47:46.070Z,59.73
2019-03-04T05:50:17.341Z,64.05
2019-03-04T05:52:47.013Z,57.45
2019-03-04T05:55:16.151Z,63.45
2019-03-04T05:57:44.784Z,62.78
2019-03-04T06:00:22.667Z,57.38
2019-03-04T06:02:52.915Z,48.08
2019-03-04T06:05:21.547Z,48.65
2019-03-04T06:07:54.424Z,43.00
2019-03-04T06:10:23.063Z,42.40
2019-03-04T06:12:51.731Z,44.83
2019-03-04T06:15:21.625Z,48.70
2019-03-04T06:17:50.258Z,41.92
2019-03-04T06:20:20.098Z,46.98
2019-03-04T06:22:48.806Z,44.50
2019-03-04T06:25:22.844Z,48.08
2019-03-04T06:27:51.342Z,46.73
2019-03-04T06:30:28.477Z,42.45
2019-03-04T06:32:57.122Z,37.23
2019-03-04T06:35:25.858Z,35.65
2019-03-04T06:37:54.517Z,40.43
2019-03-04T06:40:23.479Z,62.67
2019-03-04T06:42:52.439Z,68.65
2019-03-04T06:45:21.480Z,60.00
2019-03-04T06:47:50.114Z,77.92
2019-03-04T06:50:50.673Z,50.88
2019-03-04T06:53:39.777Z,47.15
2019-03-04T06:56:11.433Z,69.55
2019-03-04T06:58:51.844Z,37.25
2019-03-04T07:01:29.286Z,35.43
2019-03-04T07:04:01.164Z,60.35
2019-03-04T07:06:29.714Z,23.95
2019-03-04T07:09:04.923Z,39.27
2019-03-04T07:11:33.563Z,46.92
2019-03-04T07:14:02.131Z,27.73
2019-03-04T07:16:32.124Z,38.20
2019-03-04T07:19:00.930Z,49.53
2019-03-04T07:21:29.570Z,30.27
2019-03-04T07:23:58.182Z,50.65
2019-03-04T07:26:26.819Z,112.37
2019-03-04T07:28:55.310Z,27.13
2019-03-04T07:31:23.855Z,23.05
2019-03-04T07:33:52.490Z,34.05
2019-03-04T07:36:21.135Z,36.77
2019-03-04T07:38:55.040Z,26.70
2019-03-04T07:41:23.781Z,29.55
2019-03-04T07:43:52.474Z,32.67
2019-03-04T07:46:21.148Z,27.75
2019-03-04T07:48:49.844Z,35.17
2019-03-04T07:51:18.991Z,28.87
2019-03-04T07:53:47.695Z,30.55
2019-03-04T07:56:16.329Z,29.52
2019-03-04T07:58:44.849Z,30.92
2019-03-04T08:01:13.516Z,48.25
2019-03-04T08:03:42.151Z,28.57
2019-03-04T08:06:10.796Z,29.87
2019-03-04T08:08:40.674Z,26.90
2019-03-04T08:11:39.061Z,24.75
2019-03-04T08:14:10.413Z,28.65
2019-03-04T08:16:38.962Z,30.20
2019-03-04T08:19:07.550Z,32.65
2019-03-04T08:21:36.234Z,26.70
2019-03-04T08:24:04.819Z,41.37
2019-03-04T08:26:33.652Z,49.90
2019-03-04T08:29:02.338Z,34.60
2019-03-04T08:31:30.974Z,29.23
2019-03-04T08:33:59.471Z,35.08
2019-03-04T08:36:28.099Z,30.82
2019-03-04T08:38:56.735Z,32.33
2019-03-04T08:41:25.385Z,34.20
2019-03-04T08:43:53.996Z,38.92
2019-03-04T08:46:22.633Z,34.00
2019-03-04T08:48:51.133Z,39.80
2019-03-04T08:51:19.823Z,30.90
2019-03-04T08:53:48.464Z,36.17
2019-03-04T08:56:17.119Z,34.30
2019-03-04T08:58:45.684Z,29.92
2019-03-04T09:01:14.250Z,32.42
2019-03-04T09:03:42.885Z,34.48
2019-03-04T09:06:11.561Z,38.08
2019-03-04T09:08:40.058Z,39.60
2019-03-04T09:11:08.557Z,32.05
2019-03-04T09:13:37.247Z,41.92
2019-03-04T09:16:05.892Z,30.52
2019-03-04T09:18:34.401Z,35.60
2019-03-04T09:21:02.938Z,32.45
2019-03-04T09:23:31.574Z,33.10
2019-03-04T09:26:03.174Z,38.33
2019-03-04T09:28:31.783Z,31.93
2019-03-04T09:31:00.294Z,33.85
2019-03-04T09:33:28.931Z,37.42
2019-03-04T09:35:57.660Z,48.48
2019-03-04T09:38:26.151Z,39.80
2019-03-04T09:40:54.801Z,270.65
2019-03-04T09:43:23.474Z,28.83
2019-03-04T09:45:52.133Z,178.12
2019-03-04T09:48:20.709Z,352.70
2019-03-04T09:50:49.464Z,471.75
2019-03-04T09:53:18.102Z,26.57
2019-03-04T09:55:46.741Z,27.25
2019-03-04T09:58:15.341Z,33.50
2019-03-04T10:01:02.059Z,23.42
2019-03-04T10:03:42.978Z,24.12
2019-03-04T10:06:29.655Z,27.35
2019-03-04T10:09:17.483Z,18.10
2019-03-04T10:11:54.874Z,20.92
2019-03-04T10:14:26.459Z,23.95
2019-03-04T10:17:13.102Z,19.07
2019-03-04T10:19:44.691Z,18.17
2019-03-04T10:22:37.456Z,17.70
2019-03-04T10:25:17.825Z,17.90
2019-03-04T10:28:13.839Z,20.65
2019-03-04T10:31:04.962Z,19.80
2019-03-04T10:33:56.189Z,15.35
2019-03-04T10:36:39.132Z,4.85
2019-03-04T10:39:22.419Z,4.10
2019-03-04T10:41:52.597Z,4.55
2019-03-04T10:44:46.795Z,15.00
2019-03-04T10:47:15.482Z,4.62
2019-03-04T10:49:44.123Z,9.15
2019-03-04T10:52:12.617Z,9.58
2019-03-04T10:54:41.160Z,0.98
2019-03-04T10:57:09.793Z,0.88
2019-03-04T10:59:38.434Z,4.30
2019-03-04T11:02:07.096Z,5.20
2019-03-04T11:04:35.661Z,1.92
2019-03-04T11:07:04.390Z,5.70
2019-03-04T11:09:33.082Z,3.33
2019-03-04T11:12:01.579Z,9.88
2019-03-04T11:14:30.062Z,1.75
2019-03-04T11:16:58.727Z,7.20
2019-03-04T11:19:27.355Z,3.90
2019-03-04T11:21:55.990Z,9.15
2019-03-04T11:24:24.525Z,2.40
2019-03-04T11:26:53.164Z,0.70
2019-03-04T11:29:21.793Z,2.25
2019-03-04T11:31:50.693Z,0.40
2019-03-04T11:34:19.327Z,2.55
2019-03-04T11:36:53.795Z,0.70
2019-03-04T11:39:25.776Z,3.10
2019-03-04T11:41:54.459Z,4.47
2019-03-04T11:44:23.161Z,8.65
2019-03-04T11:46:51.648Z,14.15
2019-03-04T11:49:20.181Z,6.42
2019-03-04T11:51:48.824Z,11.00
2019-03-04T11:54:17.447Z,1.60
2019-03-04T11:56:46.054Z,4.17
2019-03-04T11:59:14.551Z,14.33
2019-03-04T12:01:44.817Z,7.42
2019-03-04T12:04:13.484Z,5.33
2019-03-04T12:06:43.241Z,3.22
2019-03-04T12:09:14.396Z,6.17
2019-03-04T12:11:43.034Z,1.15
2019-03-04T12:14:11.679Z,3.80
2019-03-04T12:16:40.310Z,3.83
2019-03-04T12:19:08.988Z,7.20
2019-03-04T12:21:37.484Z,11.93
2019-03-04T12:24:06.222Z,3.30
2019-03-04T12:26:34.898Z,2.98
2019-03-04T12:29:03.531Z,2.87
2019-03-04T12:31:33.736Z,1.57
2019-03-04T12:34:02.487Z,1.85
2019-03-04T12:36:31.116Z,4.00
2019-03-04T12:38:59.755Z,1.25
2019-03-04T12:41:28.580Z,1.85
2019-03-04T12:43:57.140Z,3.98
2019-03-04T12:46:25.774Z,5.67
2019-03-04T12:48:54.304Z,1.95
2019-03-04T12:51:23.633Z,3.35
2019-03-04T12:53:52.334Z,7.17
2019-03-04T12:56:21.030Z,1.42
2019-03-04T12:58:49.578Z,7.80
2019-03-04T13:01:18.283Z,2.25
2019-03-04T13:03:47.674Z,5.00
2019-03-04T13:06:16.228Z,6.58
2019-03-04T13:08:44.797Z,2.30
2019-03-04T13:11:13.505Z,3.72
2019-03-04T13:13:42.135Z,7.45
2019-03-04T13:16:11.678Z,19.73
2019-03-04T13:18:40.176Z,6.75
2019-03-04T13:21:09.094Z,1.65
2019-03-04T13:23:37.727Z,6.62
2019-03-04T13:26:06.351Z,10.70
2019-03-04T13:28:35.250Z,3.22
2019-03-04T13:31:05.753Z,1.45
2019-03-04T13:33:34.433Z,12.45
2019-03-04T13:36:07.655Z,8.78
2019-03-04T13:38:36.286Z,7.03
2019-03-04T13:41:04.982Z,7.05
2019-03-04T13:43:33.584Z,1.80
2019-03-04T13:46:02.211Z,8.48
2019-03-04T13:48:30.847Z,6.83
2019-03-04T13:50:59.451Z,3.52
2019-03-04T13:53:28.013Z,8.93
2019-03-04T13:55:56.664Z,13.53
2019-03-04T13:58:25.336Z,6.05
2019-03-04T14:00:54.001Z,4.85
2019-03-04T14:03:22.498Z,8.73
2019-03-04T14:05:51.372Z,5.15
2019-03-04T14:08:19.943Z,1.65
2019-03-04T14:10:49.691Z,12.50
2019-03-04T14:13:18.545Z,5.85
2019-03-04T14:15:51.968Z,5.33
2019-03-04T14:18:20.526Z,7.83
2019-03-04T14:20:49.191Z,3.37
2019-03-04T14:23:17.838Z,16.07
2019-03-04T14:25:46.341Z,2.27
2019-03-04T14:28:15.161Z,5.67
2019-03-04T14:30:43.800Z,8.68
2019-03-04T14:33:12.433Z,11.20
2019-03-04T14:35:41.126Z,7.42
2019-03-04T14:38:09.791Z,7.83
2019-03-04T14:40:38.423Z,10.08
2019-03-04T14:43:07.092Z,9.25
2019-03-04T14:45:35.597Z,5.80
2019-03-04T14:48:04.228Z,5.10
2019-03-04T14:50:32.908Z,5.22
2019-03-04T14:53:01.469Z,14.25
2019-03-04T14:55:35.289Z,7.35
2019-03-04T14:58:03.960Z,3.35
2019-03-04T15:00:44.126Z,9.93
2019-03-04T15:03:20.931Z,1.92
2019-03-04T15:05:43.249Z,8.93
2019-03-04T15:08:11.891Z,16.45
2019-03-04T15:10:40.843Z,3.77
2019-03-04T15:13:10.119Z,2.85
2019-03-04T15:15:38.833Z,2.47
2019-03-04T15:18:07.497Z,5.22
2019-03-04T15:20:36.119Z,2.75
2019-03-04T15:23:05.104Z,4.22
2019-03-04T15:25:35.576Z,6.53
2019-03-04T15:28:07.124Z,11.63
2019-03-04T15:30:36.153Z,5.75
2019-03-04T15:33:04.951Z,11.03
2019-03-04T15:35:33.580Z,14.55
2019-03-04T15:38:02.225Z,11.18
2019-03-04T15:40:31.002Z,13.03
2019-03-04T15:42:59.561Z,13.38
2019-03-04T15:45:28.296Z,6.05
2019-03-04T15:47:57.079Z,8.90
2019-03-04T15:50:25.711Z,15.80
2019-03-04T15:52:54.344Z,3.85
2019-03-04T15:55:23.536Z,13.30
2019-03-04T15:57:52.157Z,8.08
2019-03-04T16:00:21.166Z,14.20
2019-03-04T16:02:50.129Z,3.25
2019-03-04T16:05:18.967Z,4.83
2019-03-04T16:07:47.823Z,5.95
2019-03-04T16:10:20.402Z,12.98
2019-03-04T16:12:49.210Z,13.78
2019-03-04T16:15:19.739Z,9.03
2019-03-04T16:17:48.657Z,8.55
2019-03-04T16:20:19.459Z,10.23
2019-03-04T16:22:48.794Z,22.02
2019-03-04T16:25:18.476Z,6.15
2019-03-04T16:27:47.160Z,8.18
2019-03-04T16:30:20.773Z,4.58
2019-03-04T16:32:49.460Z,6.35
2019-03-04T16:35:18.187Z,8.90
2019-03-04T16:37:46.950Z,6.90
2019-03-04T16:40:21.194Z,4.15
2019-03-04T16:42:49.820Z,1.90
2019-03-04T16:45:19.453Z,6.72
2019-03-04T16:47:48.363Z,3.42
2019-03-04T16:50:19.035Z,6.05
2019-03-04T16:52:50.366Z,8.53
2019-03-04T16:55:19.035Z,9.00
2019-03-04T16:57:47.669Z,3.02
2019-03-04T17:00:21.073Z,3.92
2019-03-04T17:02:50.242Z,6.30
2019-03-04T17:05:19.770Z,3.77
2019-03-04T17:07:50.803Z,14.85
2019-03-04T17:10:26.789Z,8.90
2019-03-04T17:12:55.421Z,16.73
2019-03-04T17:15:24.450Z,12.93
2019-03-04T17:17:53.164Z,5.45
2019-03-04T17:20:21.792Z,4.80
2019-03-04T17:22:50.423Z,4.70
2019-03-04T17:25:22.988Z,6.25
2019-03-04T17:27:51.560Z,6.80
2019-03-04T17:30:24.909Z,11.38
2019-03-04T17:32:53.578Z,4.05
2019-03-04T17:35:24.083Z,8.08
2019-03-04T17:37:52.994Z,4.78
2019-03-04T17:40:31.096Z,8.88
2019-03-04T17:42:59.724Z,3.40
2019-03-04T17:45:29.454Z,6.37
2019-03-04T17:47:58.116Z,7.60
2019-03-04T17:50:41.632Z,13.90
2019-03-04T17:53:15.053Z,13.43
2019-03-04T17:55:45.061Z,12.60
2019-03-04T17:58:13.799Z,14.63
2019-03-04T18:00:44.086Z,13.58
2019-03-04T18:03:18.563Z,11.85
2019-03-04T18:05:47.099Z,10.85
2019-03-04T18:08:15.728Z,6.83
2019-03-04T18:10:44.369Z,3.47
2019-03-04T18:13:15.302Z,8.88
2019-03-04T18:15:45.619Z,12.20
2019-03-04T18:18:14.240Z,9.05
2019-03-04T18:20:42.872Z,11.75
2019-03-04T18:23:11.464Z,11.48
2019-03-04T18:25:52.062Z,12.33
2019-03-04T18:28:41.136Z,10.70
2019-03-04T18:31:46.151Z,10.23
2019-03-04T18:34:40.665Z,8.50
2019-03-04T18:37:37.923Z,3.50
2019-03-04T18:40:15.334Z,3.77
2019-03-04T18:42:52.619Z,6.90
2019-03-04T18:45:45.156Z,13.05
2019-03-04T18:48:22.373Z,7.85
2019-03-04T18:50:50.909Z,6.30
2019-03-04T18:53:19.533Z,9.68
2019-03-04T18:55:48.166Z,6.47
2019-03-04T18:58:16.760Z,9.93
2019-03-04T19:00:45.406Z,2.85
2019-03-04T19:03:14.092Z,5.72
2019-03-04T19:05:43.023Z,3.50
2019-03-04T19:08:11.516Z,7.25
2019-03-04T19:10:40.010Z,6.42
2019-03-04T19:13:08.710Z,7.20
2019-03-04T19:15:37.342Z,7.90
2019-03-04T19:18:06.002Z,7.53
2019-03-04T19:20:34.605Z,3.15
2019-03-04T19:23:04.090Z,8.90
2019-03-04T19:25:32.720Z,4.97
2019-03-04T19:28:01.249Z,6.60
2019-03-04T19:30:29.881Z,7.25
2019-03-04T19:32:58.519Z,15.75
2019-03-04T19:35:27.044Z,9.53
2019-03-04T19:37:55.682Z,4.15
2019-03-04T19:40:24.309Z,8.65
2019-03-04T19:42:53.253Z,3.55
2019-03-04T19:45:21.854Z,5.65
2019-03-04T19:47:50.654Z,7.25
2019-03-04T19:50:19.324Z,10.40
2019-03-04T19:52:47.890Z,10.15
2019-03-04T19:55:17.724Z,12.78
2019-03-04T19:57:46.956Z,11.97
2019-03-04T20:00:27.357Z,12.40
2019-03-04T20:02:56.029Z,10.08
2019-03-04T20:05:25.228Z,16.93
2019-03-04T20:07:53.946Z,14.70
2019-03-04T20:10:22.603Z,12.70
2019-03-04T20:12:51.301Z,14.43
2019-03-04T20:15:28.025Z,14.10
2019-03-04T20:17:56.774Z,13.53
2019-03-04T20:20:25.475Z,16.05
2019-03-04T20:22:54.125Z,16.17
2019-03-04T20:25:23.654Z,14.40
2019-03-04T20:27:52.487Z,15.78
2019-03-04T20:30:25.446Z,15.03
2019-03-04T20:32:53.595Z,15.45
2019-03-04T20:35:22.633Z,15.65
2019-03-04T20:37:57.083Z,13.15
2019-03-04T20:40:25.713Z,32.38
2019-03-04T20:42:54.298Z,26.57
2019-03-04T20:45:24.447Z,25.77
2019-03-04T20:47:53.085Z,33.55
2019-03-04T20:50:23.019Z,30.57
2019-03-04T20:52:51.693Z,33.60
2019-03-04T20:55:20.828Z,35.80
2019-03-04T20:57:49.551Z,44.27
2019-03-04T21:00:21.469Z,44.85
2019-03-04T21:05:37.932Z,43.73
2019-03-04T21:08:07.495Z,43.13
2019-03-04T21:10:36.525Z,37.85
2019-03-04T21:13:10.346Z,33.33
2019-03-04T21:15:39.130Z,35.95
2019-03-04T21:18:07.957Z,30.75
2019-03-04T21:20:36.516Z,32.55
2019-03-04T21:23:05.440Z,26.93
2019-03-04T21:25:51.743Z,19.75
2019-03-04T21:28:32.191Z,19.42
2019-03-04T21:31:21.830Z,17.37
2019-03-04T21:33:59.056Z,15.43
2019-03-04T21:37:05.784Z,15.53
2019-03-04T21:39:42.984Z,17.65
2019-03-04T21:42:17.227Z,14.13
2019-03-04T21:45:03.435Z,16.60
2019-03-04T21:47:38.232Z,13.90
2019-03-04T21:50:10.180Z,16.42
2019-03-04T21:52:46.731Z,14.58
2019-03-04T21:55:23.661Z,16.27
2019-03-04T21:57:52.771Z,14.75
2019-03-04T22:00:25.555Z,17.92
2019-03-04T22:03:00.116Z,13.98
2019-03-04T22:05:28.730Z,15.00
2019-03-04T22:07:57.281Z,14.73
2019-03-04T22:10:26.146Z,14.33
2019-03-04T22:12:57.215Z,20.20
2019-03-04T22:15:24.999Z,15.75
2019-03-04T22:17:53.717Z,15.18
2019-03-04T22:20:22.471Z,14.87
2019-03-04T22:22:51.418Z,13.38
2019-03-04T22:25:20.167Z,15.20
2019-03-04T22:27:48.812Z,12.90
2019-03-04T22:30:20.652Z,14.98
2019-03-04T22:32:49.190Z,13.93
2019-03-04T22:35:17.977Z,18.20
2019-03-04T22:37:46.581Z,23.70
2019-03-04T22:40:18.039Z,24.25
2019-03-04T22:42:46.713Z,19.80
2019-03-04T22:45:20.508Z,20.68
2019-03-04T22:47:50.685Z,17.60
2019-03-04T22:50:23.063Z,21.33
2019-03-04T22:52:51.781Z,19.07
2019-03-04T22:55:29.411Z,16.57
2019-03-04T22:57:57.945Z,22.95
2019-03-04T23:00:49.499Z,14.70
2019-03-04T23:03:19.231Z,14.20
2019-03-04T23:05:56.445Z,17.32
2019-03-04T23:08:24.956Z,16.35
2019-03-04T23:10:53.596Z,15.78
2019-03-04T23:13:39.892Z,15.78
2019-03-04T23:16:09.361Z,17.48
2019-03-04T23:18:37.885Z,14.55
2019-03-04T23:21:06.674Z,14.03
2019-03-04T23:23:35.279Z,14.60
2019-03-04T23:26:03.837Z,16.20
2019-03-04T23:28:32.596Z,15.53
2019-03-04T23:31:01.226Z,19.82
2019-03-04T23:33:29.780Z,14.47
2019-03-04T23:35:58.447Z,16.27
2019-03-04T23:38:27.072Z,16.62
2019-03-04T23:40:55.700Z,15.48
2019-03-04T23:43:24.366Z,12.65
2019-03-04T23:45:53.202Z,13.65
2019-03-04T23:48:21.829Z,16.17
2019-03-04T23:50:50.446Z,19.40
2019-03-04T23:53:19.008Z,15.00
2019-03-04T23:55:47.641Z,18.92
2019-03-04T23:58:16.314Z,15.78
